Time;durP1;ratioP1;P1;durP2;ratioP2;P2;SDS_P1;SDS_P2;PMS_P1;PMS_P2;Temp;Humidity;BMP_temperature;BMP_pressure;BME280_temperature;BME280_humidity;BME280_pressure;Samples;Min_cycle;Max_cycle;Signal;HPM_P1;HPM_P2
2023/05/22 00:00:12;;;;;;;4.60;3.63;;;;;;;12.42;70.63;94560.00;5029511;28;20430;-74
2023/05/22 00:02:41;;;;;;;9.02;3.58;;;;;;;12.07;71.83;94484.22;5047629;28;20028;-74
2023/05/22 00:05:13;;;;;;;7.50;3.95;;;;;;;12.25;71.41;94504.28;5049176;28;20044;-74
2023/05/22 00:07:39;;;;;;;5.22;3.47;;;;;;;12.06;71.66;94458.31;5048358;28;20025;-74
2023/05/22 00:10:05;;;;;;;5.88;3.40;;;;;;;12.44;71.70;94540.66;5029623;28;20067;-74
2023/05/22 00:12:31;;;;;;;4.88;3.38;;;;;;;12.48;72.01;94536.81;5046906;28;20023;-74
2023/05/22 00:14:56;;;;;;;6.18;3.42;;;;;;;12.17;71.74;94473.75;5048312;28;20037;-74
2023/05/22 00:17:25;;;;;;;5.80;3.63;;;;;;;12.75;72.30;94558.56;5046951;28;20427;-74
2023/05/22 00:19:52;;;;;;;6.78;3.70;;;;;;;12.25;72.26;94473.03;5046925;28;20468;-74
2023/05/22 00:22:18;;;;;;;4.68;3.50;;;;;;;12.67;72.35;94568.91;5045536;28;20056;-74
2023/05/22 00:24:43;;;;;;;6.13;3.92;;;;;;;12.30;71.75;94486.44;5048095;28;20084;-74
2023/05/22 00:27:09;;;;;;;6.63;3.75;;;;;;;12.16;72.41;94499.94;5046438;28;20032;-74
2023/05/22 00:29:35;;;;;;;6.10;4.03;;;;;;;12.10;71.99;94474.50;5050688;28;20033;-74
2023/05/22 00:32:00;;;;;;;5.85;4.03;;;;;;;12.13;72.13;94489.81;5051319;28;20025;-74
2023/05/22 00:34:26;;;;;;;8.20;3.85;;;;;;;11.82;72.77;94464.03;5017055;28;20033;-74
2023/05/22 00:36:51;;;;;;;5.68;3.97;;;;;;;11.84;73.63;94475.13;5050871;28;20112;-74
2023/05/22 00:39:17;;;;;;;4.35;3.33;;;;;;;12.32;73.96;94561.84;5051365;28;20037;-74
2023/05/22 00:41:42;;;;;;;6.95;3.45;;;;;;;12.14;73.95;94486.25;5033370;28;20495;-74
2023/05/22 00:44:09;;;;;;;4.90;3.30;;;;;;;11.89;74.35;94472.91;5050056;28;20040;-74
2023/05/22 00:46:35;;;;;;;6.03;3.80;;;;;;;12.62;73.22;94556.34;5051211;28;20033;-74
2023/05/22 00:49:00;;;;;;;4.80;4.22;;;;;;;12.38;73.38;94530.81;5049958;28;20025;-74
2023/05/22 00:51:26;;;;;;;4.90;3.47;;;;;;;12.14;73.77;94494.88;5016815;28;20044;-74
2023/05/22 00:53:52;;;;;;;5.18;3.28;;;;;;;12.22;73.89;94499.34;5033300;28;20478;-74
2023/05/22 00:56:17;;;;;;;5.82;3.65;;;;;;;12.15;73.81;94498.31;5032637;28;20021;-74
2023/05/22 00:58:43;;;;;;;4.55;3.20;;;;;;;12.55;73.73;94541.44;5033295;28;20048;-74
2023/05/22 01:01:10;;;;;;;5.28;3.45;;;;;;;12.63;73.45;94559.75;5049817;28;20506;-74
2023/05/22 01:03:46;;;;;;;7.80;4.88;;;;;;;12.58;73.59;94551.56;5050680;28;20043;-74
2023/05/22 01:06:12;;;;;;;5.85;4.35;;;;;;;12.68;73.85;94553.16;5051917;28;20037;-74
2023/05/22 01:08:38;;;;;;;5.78;3.78;;;;;;;12.83;73.31;94561.28;5033332;28;20041;-74
2023/05/22 01:11:14;;;;;;;5.60;4.03;;;;;;;12.74;73.18;94567.38;5033045;28;20044;-74
2023/05/22 01:14:13;;;;;;;4.38;3.63;;;;;;;12.58;73.20;94561.97;5017674;28;20076;-74
2023/05/22 01:16:39;;;;;;;5.80;4.13;;;;;;;12.49;72.95;94564.47;5049320;28;20487;-74
2023/05/22 01:19:22;;;;;;;4.15;3.35;;;;;;;12.26;73.21;94524.16;5050793;28;20033;-74
2023/05/22 01:22:10;;;;;;;5.00;3.70;;;;;;;12.43;73.61;94564.25;5050847;28;20044;-74
2023/05/22 01:25:12;;;;;;;7.45;4.47;;;;;;;12.44;73.45;94555.47;5053971;28;20037;-74
2023/05/22 01:27:58;;;;;;;9.43;5.22;;;;;;;12.42;73.60;94552.16;5050568;28;20060;-74
2023/05/22 01:30:42;;;;;;;10.32;5.90;;;;;;;12.28;73.89;94556.06;5049453;28;20496;-74
2023/05/22 01:33:08;;;;;;;7.53;4.85;;;;;;;12.46;73.59;94558.75;5050247;28;20047;-74
2023/05/22 01:35:33;;;;;;;6.68;4.55;;;;;;;12.30;73.80;94546.34;5053653;28;20399;-74
2023/05/22 01:37:59;;;;;;;5.05;4.05;;;;;;;12.06;74.19;94523.41;5053288;28;20045;-74
2023/05/22 01:40:24;;;;;;;5.55;3.95;;;;;;;11.99;73.43;94481.50;5037116;28;20064;-74
2023/05/22 01:42:50;;;;;;;4.70;3.65;;;;;;;11.92;73.55;94483.03;5036936;28;20512;-74
2023/05/22 01:45:16;;;;;;;5.07;3.90;;;;;;;11.73;73.57;94468.31;5020502;28;20482;-74
2023/05/22 01:47:42;;;;;;;5.72;3.63;;;;;;;12.10;73.79;94539.56;5036925;28;20049;-74
2023/05/22 01:50:07;;;;;;;4.53;3.47;;;;;;;12.18;74.01;94550.09;5054807;28;20029;-74
2023/05/22 01:52:51;;;;;;;6.22;4.10;;;;;;;12.07;74.04;94545.88;5037011;28;20041;-74
2023/05/22 01:55:33;;;;;;;4.32;3.25;;;;;;;12.20;72.98;94548.16;5037205;28;20029;-74
2023/05/22 01:58:07;;;;;;;6.65;3.90;;;;;;;11.82;73.52;94492.66;5052960;28;20037;-74
2023/05/22 02:00:32;;;;;;;6.65;3.78;;;;;;;11.84;73.22;94488.13;5038155;28;20483;-74
2023/05/22 02:03:02;;;;;;;6.35;3.80;;;;;;;11.78;73.10;94470.47;5033386;28;20029;-74
2023/05/22 02:05:28;;;;;;;4.50;3.67;;;;;;;12.03;72.65;94508.88;5033242;28;20113;-74
2023/05/22 02:07:55;;;;;;;5.75;3.85;;;;;;;12.30;71.37;94544.53;5016550;28;20029;-74
2023/05/22 02:10:20;;;;;;;6.35;3.70;;;;;;;12.20;71.33;94548.16;5000348;28;20061;-74
2023/05/22 02:12:46;;;;;;;4.97;3.80;;;;;;;11.47;71.75;94449.06;5034107;28;20033;-74
2023/05/22 02:15:11;;;;;;;5.13;3.83;;;;;;;11.42;72.10;94459.88;5033077;28;20108;-74
2023/05/22 02:17:41;;;;;;;8.05;4.20;;;;;;;11.04;73.02;94445.19;5032676;28;20045;-74
2023/05/22 02:20:14;;;;;;;5.97;3.88;;;;;;;11.11;73.56;94460.06;5033857;28;20522;-74
2023/05/22 02:22:44;;;;;;;6.28;4.10;;;;;;;11.11;73.31;94459.25;5016789;28;20037;-74
2023/05/22 02:25:13;;;;;;;6.35;3.72;;;;;;;11.09;73.50;94469.00;5032799;28;20034;-74
2023/05/22 02:27:42;;;;;;;4.85;3.63;;;;;;;11.50;73.77;94539.81;5016566;28;20045;-74
2023/05/22 02:30:08;;;;;;;5.75;3.85;;;;;;;11.21;74.25;94524.25;5033985;28;20029;-74
2023/05/22 02:32:33;;;;;;;6.65;3.97;;;;;;;10.91;74.66;94481.84;4999828;28;20131;-74
2023/05/22 02:34:59;;;;;;;6.32;3.92;;;;;;;10.65;74.68;94460.78;5032664;28;20022;-74
2023/05/22 02:37:24;;;;;;;5.30;3.90;;;;;;;10.88;75.05;94510.72;5016010;28;20451;-74
2023/05/22 02:39:50;;;;;;;6.07;3.60;;;;;;;11.31;73.75;94545.84;5033759;28;20022;-74
2023/05/22 02:42:15;;;;;;;4.15;3.25;;;;;;;10.89;72.93;94479.41;5033600;28;20034;-74
2023/05/22 02:44:41;;;;;;;5.95;3.80;;;;;;;10.81;73.57;94468.88;5015226;28;20083;-74
2023/05/22 02:47:06;;;;;;;7.15;3.83;;;;;;;11.21;73.60;94548.47;5033267;28;20479;-74
2023/05/22 02:49:32;;;;;;;5.57;4.05;;;;;;;11.04;74.54;94542.19;4999300;28;20033;-74
2023/05/22 02:51:57;;;;;;;5.10;3.75;;;;;;;11.04;75.09;94534.38;5033421;28;20037;-74
2023/05/22 02:54:23;;;;;;;5.20;3.63;;;;;;;11.00;75.36;94538.19;5033294;28;20036;-74
2023/05/22 02:56:48;;;;;;;6.47;4.05;;;;;;;10.44;75.21;94443.53;5015582;28;20038;-74
2023/05/22 02:59:15;;;;;;;5.32;4.28;;;;;;;10.43;75.65;94449.69;5032118;28;20025;-74
2023/05/22 03:01:40;;;;;;;7.68;4.10;;;;;;;10.94;75.82;94531.75;5041434;28;20087;-74
2023/05/22 03:04:06;;;;;;;5.60;4.07;;;;;;;10.45;75.55;94452.97;5053236;28;20060;-74
2023/05/22 03:06:33;;;;;;;5.55;3.80;;;;;;;10.38;75.39;94427.69;5053033;28;20410;-74
2023/05/22 03:08:58;;;;;;;4.95;3.97;;;;;;;10.64;75.22;94459.97;5053059;28;20017;-74
2023/05/22 03:11:23;;;;;;;5.85;3.90;;;;;;;11.17;74.58;94526.28;5051756;28;20041;-74
2023/05/22 03:13:49;;;;;;;6.88;4.97;;;;;;;10.47;75.03;94443.28;5052989;28;20139;-74
2023/05/22 03:16:15;;;;;;;5.93;4.15;;;;;;;11.06;75.11;94539.44;5053223;28;20032;-74
2023/05/22 03:18:40;;;;;;;8.07;4.57;;;;;;;10.53;75.35;94462.72;5018702;28;20557;-74
2023/05/22 03:21:06;;;;;;;8.13;4.10;;;;;;;11.06;75.51;94544.63;5053230;28;20479;-74
2023/05/22 03:23:31;;;;;;;6.72;4.10;;;;;;;10.65;75.94;94487.59;5052896;28;20108;-74
2023/05/22 03:25:57;;;;;;;6.28;3.72;;;;;;;10.40;75.83;94443.97;5035002;28;20043;-74
2023/05/22 03:28:22;;;;;;;8.07;3.90;;;;;;;10.51;75.86;94465.41;5051774;28;20041;-74
2023/05/22 03:30:48;;;;;;;5.63;4.20;;;;;;;11.05;75.92;94541.22;5051498;28;20033;-74
2023/05/22 03:33:13;;;;;;;6.75;4.75;;;;;;;11.08;75.91;94545.31;5018014;28;20469;-74
2023/05/22 03:35:39;;;;;;;5.90;4.22;;;;;;;10.93;75.04;94474.75;5034849;28;20115;-74
2023/05/22 03:38:04;;;;;;;5.13;4.10;;;;;;;10.82;75.08;94470.50;5052420;28;20037;-74
2023/05/22 03:40:30;;;;;;;6.50;3.55;;;;;;;11.30;75.15;94542.44;5051462;28;20032;-74
2023/05/22 03:42:55;;;;;;;6.28;4.10;;;;;;;10.99;74.69;94473.38;5052366;28;20491;-74
2023/05/22 03:45:21;;;;;;;6.95;4.07;;;;;;;10.92;74.35;94447.09;5052600;28;20048;-74
2023/05/22 03:47:46;;;;;;;6.05;4.43;;;;;;;11.47;74.49;94540.09;5052347;28;20036;-74
2023/05/22 03:50:12;;;;;;;6.88;4.35;;;;;;;11.45;74.54;94547.22;5052538;28;20025;-74
2023/05/22 03:52:38;;;;;;;5.43;3.88;;;;;;;11.48;74.44;94534.78;5051164;28;20381;-74
2023/05/22 03:55:04;;;;;;;4.95;4.05;;;;;;;11.23;74.25;94480.72;5050945;28;20029;-74
2023/05/22 03:57:30;;;;;;;5.15;3.67;;;;;;;11.78;73.85;94543.31;5034096;28;20033;-74
2023/05/22 03:59:56;;;;;;;8.98;4.18;;;;;;;11.21;73.71;94457.47;5052304;28;20028;-74
2023/05/22 04:02:25;;;;;;;4.68;3.85;;;;;;;11.55;73.12;94496.00;5050927;28;20048;-74
2023/05/22 04:04:50;;;;;;;5.35;3.95;;;;;;;11.81;72.11;94485.78;5018563;28;20074;-74
2023/05/22 04:07:17;;;;;;;9.18;4.00;;;;;;;12.08;71.90;94496.25;5034253;28;20037;-74
2023/05/22 04:09:42;;;;;;;4.70;4.20;;;;;;;12.43;70.71;94473.91;5051960;28;20080;-74
2023/05/22 04:12:08;;;;;;;4.97;3.83;;;;;;;12.83;70.25;94490.91;5050521;28;20037;-74
2023/05/22 04:14:33;;;;;;;5.30;3.67;;;;;;;13.60;69.15;94520.75;5052019;28;20103;-75
2023/05/22 04:16:59;;;;;;;6.22;3.55;;;;;;;14.15;67.58;94548.34;5034144;28;20036;-74
2023/05/22 04:19:26;;;;;;;4.97;3.40;;;;;;;14.08;66.05;94469.78;5050557;28;20040;-74
2023/05/22 04:21:53;;;;;;;5.82;3.58;;;;;;;14.67;64.52;94477.69;5051784;28;20021;-75
2023/05/22 04:24:19;;;;;;;5.05;3.38;;;;;;;15.26;63.62;94484.63;5034121;28;20135;-74
2023/05/22 04:26:45;;;;;;;6.40;3.80;;;;;;;16.09;62.16;94547.25;5051528;28;20025;-74
2023/05/22 04:29:13;;;;;;;4.20;3.42;;;;;;;16.13;61.28;94484.84;5051597;28;20094;-75
2023/05/22 04:31:38;;;;;;;4.57;3.35;;;;;;;16.49;60.16;94506.16;5034270;28;20112;-74
2023/05/22 04:34:05;;;;;;;5.57;3.55;;;;;;;15.85;61.24;94487.84;5045372;28;20471;-74
2023/05/22 04:36:30;;;;;;;5.53;3.78;;;;;;;16.23;61.26;94551.78;5048096;28;20083;-74
2023/05/22 04:38:56;;;;;;;5.93;3.63;;;;;;;16.43;60.28;94496.34;5047668;28;20029;-74
2023/05/22 04:41:25;;;;;;;6.60;3.90;;;;;;;16.64;59.63;94477.41;5013276;28;20111;-74
2023/05/22 04:43:53;;;;;;;6.60;4.78;;;;;;;16.62;57.45;94476.78;5046905;28;20029;-74
2023/05/22 04:46:19;;;;;;;8.77;5.05;;;;;;;16.89;58.61;94541.91;5047735;28;20082;-74
2023/05/22 04:48:46;;;;;;;7.65;4.47;;;;;;;16.22;58.88;94481.22;5030004;28;20122;-74
2023/05/22 04:51:13;;;;;;;7.82;4.80;;;;;;;16.38;59.84;94553.72;5047153;28;20749;-74
2023/05/22 04:53:38;;;;;;;7.55;5.38;;;;;;;16.20;60.40;94551.31;5046140;28;20116;-74
2023/05/22 04:56:07;;;;;;;7.65;5.10;;;;;;;16.33;61.29;94551.63;5048250;28;20444;-75
2023/05/22 04:58:32;;;;;;;10.40;5.97;;;;;;;16.20;60.32;94470.06;5046588;28;20032;-74
2023/05/22 05:00:58;;;;;;;9.38;7.07;;;;;;;16.37;60.52;94491.78;5048384;28;20020;-74
2023/05/22 05:03:27;;;;;;;15.65;10.20;;;;;;;16.95;57.33;94549.06;5045404;28;20079;-74
2023/05/22 05:05:53;;;;;;;11.93;7.55;;;;;;;17.09;58.55;94544.91;5012067;28;20051;-74
2023/05/22 05:08:18;;;;;;;9.60;6.72;;;;;;;16.70;58.57;94509.00;5009438;28;20517;-74
2023/05/22 05:10:44;;;;;;;6.00;4.72;;;;;;;16.80;57.75;94502.75;5028379;28;20068;-74
2023/05/22 05:13:09;;;;;;;6.80;4.55;;;;;;;17.53;56.66;94546.09;5027139;28;20062;-74
2023/05/22 05:15:35;;;;;;;7.43;4.07;;;;;;;16.89;54.65;94492.06;5010136;28;20038;-74
2023/05/22 05:18:00;;;;;;;5.63;4.07;;;;;;;17.38;53.99;94552.09;5028306;28;20036;-75
2023/05/22 05:20:26;;;;;;;6.13;4.22;;;;;;;17.42;53.40;94553.38;5047555;28;20047;-74
2023/05/22 05:22:52;;;;;;;42.15;27.45;;;;;;;17.41;53.56;94556.16;5027297;28;20118;-74
2023/05/22 05:25:17;;;;;;;37.45;24.02;;;;;;;17.32;53.07;94555.41;5029835;28;20107;-74
2023/05/22 05:27:43;;;;;;;12.10;7.65;;;;;;;16.94;53.59;94487.09;5047887;28;20029;-73
2023/05/22 05:30:09;;;;;;;9.52;6.47;;;;;;;17.24;51.18;94483.78;5045664;28;20040;-74
2023/05/22 05:32:35;;;;;;;10.25;7.20;;;;;;;17.28;51.93;94485.88;5043816;28;20029;-73
2023/05/22 05:35:00;;;;;;;15.40;13.90;;;;;;;17.28;51.54;94488.50;5047367;28;20051;-73
2023/05/22 05:37:26;;;;;;;7.97;6.95;;;;;;;17.39;51.48;94510.91;5046919;28;20403;-73
2023/05/22 05:39:51;;;;;;;5.63;5.07;;;;;;;17.52;50.02;94516.34;5028900;28;20503;-74
2023/05/22 05:42:17;;;;;;;7.07;3.85;;;;;;;17.94;50.05;94556.25;5044805;28;20445;-73
2023/05/22 05:44:42;;;;;;;8.52;3.63;;;;;;;18.06;49.71;94560.09;5047448;28;20036;-73
2023/05/22 05:47:07;;;;;;;6.38;3.20;;;;;;;17.82;49.81;94500.72;5025692;28;20025;-73
2023/05/22 05:49:33;;;;;;;8.27;3.88;;;;;;;17.89;49.89;94500.81;5010375;28;20680;-73
2023/05/22 05:51:58;;;;;;;7.82;5.15;;;;;;;18.24;48.62;94544.78;5010718;28;20521;-73
2023/05/22 05:54:27;;;;;;;6.03;3.63;;;;;;;18.05;47.81;94512.00;5012544;28;20449;-73
2023/05/22 05:56:52;;;;;;;5.50;3.50;;;;;;;18.06;48.39;94505.72;5029477;28;20033;-73
2023/05/22 05:59:18;;;;;;;6.93;4.68;;;;;;;18.42;48.49;94569.94;5018657;28;20044;-73
2023/05/22 06:01:46;;;;;;;9.50;5.05;;;;;;;18.05;48.22;94505.91;5037236;28;20040;-73
2023/05/22 06:04:12;;;;;;;4.22;3.17;;;;;;;18.19;47.68;94513.00;5050361;28;20037;-73
2023/05/22 06:06:38;;;;;;;6.15;3.47;;;;;;;18.60;46.90;94507.25;5051450;28;20042;-73
2023/05/22 06:09:08;;;;;;;15.85;3.80;;;;;;;18.91;46.65;94507.03;5049982;28;20092;-73
2023/05/22 06:11:34;;;;;;;3.97;3.30;;;;;;;18.39;45.92;94475.63;5033266;28;20033;-73
2023/05/22 06:14:03;;;;;;;3.97;2.80;;;;;;;19.09;45.21;94561.09;5049504;28;20208;-73
2023/05/22 06:16:28;;;;;;;5.78;3.10;;;;;;;18.94;45.18;94521.63;5030986;28;20029;-73
2023/05/22 06:18:56;;;;;;;6.90;2.90;;;;;;;19.07;45.17;94513.88;5029223;28;20037;-73
2023/05/22 06:21:21;;;;;;;5.35;3.30;;;;;;;19.41;46.04;94565.88;5032644;28;20479;-73
2023/05/22 06:23:48;;;;;;;6.13;3.08;;;;;;;19.01;44.93;94484.88;5016331;28;20021;-73
2023/05/22 06:26:14;;;;;;;8.52;5.80;;;;;;;19.06;46.16;94499.09;5032031;28;20033;-71
2023/05/22 06:28:39;;;;;;;7.68;4.35;;;;;;;19.48;45.43;94558.06;5032637;28;20488;-72
2023/05/22 06:31:05;;;;;;;10.10;5.10;;;;;;;18.91;45.45;94479.91;5032685;28;20052;-72
2023/05/22 06:33:30;;;;;;;6.65;3.97;;;;;;;19.02;45.00;94487.31;5032581;28;20559;-72
2023/05/22 06:35:56;;;;;;;6.15;3.60;;;;;;;19.06;45.43;94503.56;5007296;28;20501;-72
2023/05/22 06:38:21;;;;;;;4.85;2.92;;;;;;;19.04;42.40;94487.94;5047408;28;20041;-72
2023/05/22 06:40:47;;;;;;;6.15;4.85;;;;;;;18.71;43.41;94475.19;5050020;28;20477;-72
2023/05/22 06:43:12;;;;;;;6.47;4.07;;;;;;;19.11;43.32;94517.78;5050206;28;20419;-72
2023/05/22 06:45:38;;;;;;;7.95;5.75;;;;;;;19.33;43.60;94557.28;5033626;28;20493;-72
2023/05/22 06:48:03;;;;;;;5.63;3.25;;;;;;;18.82;43.99;94496.81;5051250;28;20033;-72
2023/05/22 06:50:29;;;;;;;4.97;2.90;;;;;;;19.38;43.56;94560.19;5033727;28;20029;-71
2023/05/22 06:52:55;;;;;;;4.75;2.70;;;;;;;18.87;44.11;94491.81;5051439;28;20037;-71
2023/05/22 06:55:21;;;;;;;8.13;3.90;;;;;;;19.04;43.56;94503.72;5053064;28;20063;-72
2023/05/22 06:57:47;;;;;;;5.40;2.72;;;;;;;19.19;44.21;94515.03;5018213;28;20033;-72
2023/05/22 07:00:13;;;;;;;7.00;2.90;;;;;;;18.99;43.49;94495.56;5035231;28;20039;-72
2023/05/22 07:02:39;;;;;;;7.38;3.75;;;;;;;19.37;43.78;94553.28;5035355;28;20094;-72
2023/05/22 07:05:04;;;;;;;7.03;3.63;;;;;;;19.61;44.70;94566.09;5018713;28;20064;-72
2023/05/22 07:07:30;;;;;;;7.00;3.10;;;;;;;19.51;43.25;94507.63;5018717;28;20171;-72
2023/05/22 07:09:55;;;;;;;6.05;3.25;;;;;;;19.47;43.43;94508.19;5018488;28;20072;-72
2023/05/22 07:12:24;;;;;;;11.05;3.28;;;;;;;19.51;42.67;94497.09;5035067;28;20025;-72
2023/05/22 07:14:51;;;;;;;4.90;3.08;;;;;;;19.71;42.96;94488.56;5019545;28;20119;-72
2023/05/22 07:17:17;;;;;;;6.03;3.28;;;;;;;19.64;42.52;94484.03;5035027;28;20124;-72
2023/05/22 07:19:42;;;;;;;5.50;3.00;;;;;;;19.81;42.58;94489.06;5051610;28;20048;-72
2023/05/22 07:22:08;;;;;;;4.95;2.90;;;;;;;19.91;41.76;94483.44;5052719;28;20479;-72
2023/05/22 07:24:33;;;;;;;10.18;3.35;;;;;;;20.47;41.60;94555.41;5052746;28;20037;-72
2023/05/22 07:27:00;;;;;;;8.65;3.67;;;;;;;20.08;40.96;94496.13;5034709;28;20044;-72
2023/05/22 07:29:25;;;;;;;7.13;2.92;;;;;;;20.35;40.48;94488.38;5051463;28;20035;-72
2023/05/22 07:31:50;;;;;;;4.88;2.90;;;;;;;20.55;41.02;94488.50;5034256;28;20029;-72
2023/05/22 07:34:16;;;;;;;4.75;2.88;;;;;;;20.46;40.68;94513.41;5051267;28;20028;-72
2023/05/22 07:36:42;;;;;;;4.57;2.85;;;;;;;20.95;40.64;94552.03;5034582;28;20094;-72
2023/05/22 07:39:08;;;;;;;6.55;3.00;;;;;;;20.39;40.85;94484.34;5018041;28;20508;-72
2023/05/22 07:41:33;;;;;;;5.57;3.03;;;;;;;20.75;41.07;94507.06;5034562;28;20040;-72
2023/05/22 07:43:59;;;;;;;6.47;2.83;;;;;;;20.77;37.23;94496.31;5018166;28;20111;-72
2023/05/22 07:46:24;;;;;;;4.97;2.55;;;;;;;21.11;36.82;94535.81;5034463;28;20511;-72
2023/05/22 07:48:50;;;;;;;5.53;2.80;;;;;;;20.80;39.16;94502.00;5034393;28;20028;-72
2023/05/22 07:51:15;;;;;;;3.25;2.40;;;;;;;20.43;36.17;94496.13;5051142;28;20552;-72
2023/05/22 07:53:41;;;;;;;4.32;2.50;;;;;;;19.88;39.20;94497.81;5017785;28;20029;-71
2023/05/22 07:56:06;;;;;;;7.43;2.70;;;;;;;19.95;40.27;94485.50;5034186;28;20041;-71
2023/05/22 07:58:32;;;;;;;4.13;2.83;;;;;;;20.33;40.32;94548.41;5050818;28;20531;-72
2023/05/22 08:00:58;;;;;;;5.22;2.97;;;;;;;19.42;41.96;94461.38;5050706;28;20446;-71
2023/05/22 08:03:23;;;;;;;4.78;3.05;;;;;;;19.61;43.70;94473.88;5050738;28;20044;-71
2023/05/22 08:05:49;;;;;;;5.20;3.10;;;;;;;19.71;42.35;94483.31;5052266;28;20029;-71
2023/05/22 08:08:14;;;;;;;6.30;3.15;;;;;;;19.62;42.36;94466.78;5050527;28;20032;-72
2023/05/22 08:10:40;;;;;;;5.38;3.20;;;;;;;20.10;42.15;94519.66;5050617;28;20040;-72
2023/05/22 08:13:05;;;;;;;5.25;3.17;;;;;;;19.78;41.71;94482.34;5050827;28;20044;-72
2023/05/22 08:15:31;;;;;;;7.55;3.20;;;;;;;20.13;41.74;94548.28;5034164;28;20392;-72
2023/05/22 08:17:57;;;;;;;5.63;3.25;;;;;;;19.87;42.47;94483.03;5017321;28;20037;-72
2023/05/22 08:20:22;;;;;;;5.47;2.75;;;;;;;20.08;40.92;94497.94;5051898;28;20475;-72
2023/05/22 08:22:48;;;;;;;5.80;3.40;;;;;;;19.87;41.57;94496.19;5033626;28;20407;-72
2023/05/22 08:25:13;;;;;;;7.10;2.90;;;;;;;19.97;41.56;94488.75;5050409;28;20036;-72
2023/05/22 08:27:39;;;;;;;5.60;3.10;;;;;;;20.03;41.05;94548.63;5050220;28;20057;-71
2023/05/22 08:30:05;;;;;;;6.22;2.90;;;;;;;20.41;39.90;94545.63;5051661;28;20035;-72
2023/05/22 08:32:30;;;;;;;6.82;2.83;;;;;;;20.29;40.16;94486.53;5050162;28;20029;-72
2023/05/22 08:34:56;;;;;;;5.70;2.58;;;;;;;20.23;39.37;94468.84;5033656;28;20038;-72
2023/05/22 08:37:21;;;;;;;4.25;2.80;;;;;;;20.31;39.07;94477.41;5033309;28;20033;-72
2023/05/22 08:39:47;;;;;;;3.55;2.80;;;;;;;20.00;39.57;94477.00;5033583;28;20032;-72
2023/05/22 08:42:12;;;;;;;5.72;2.45;;;;;;;20.59;40.02;94544.31;5049951;28;20029;-72
2023/05/22 08:44:38;;;;;;;5.05;2.80;;;;;;;20.30;39.67;94485.50;5016359;28;20033;-72
2023/05/22 08:47:08;;;;;;;8.63;2.60;;;;;;;20.67;38.75;94525.69;5051117;28;20029;-72
2023/05/22 08:49:34;;;;;;;4.28;2.38;;;;;;;21.05;38.77;94556.94;5034088;28;20039;-72
2023/05/22 08:52:04;;;;;;;6.22;2.40;;;;;;;20.47;37.40;94491.28;5050993;28;20166;-71
2023/05/22 08:54:30;;;;;;;6.72;2.58;;;;;;;20.55;37.17;94490.34;5049829;28;20047;-72
2023/05/22 08:56:56;;;;;;;7.93;2.60;;;;;;;20.61;37.57;94492.19;5016761;28;20041;-72
2023/05/22 08:59:21;;;;;;;5.50;2.47;;;;;;;21.01;37.78;94519.56;5048704;28;20036;-72
2023/05/22 09:01:47;;;;;;;4.22;2.63;;;;;;;20.92;37.42;94471.41;5050439;28;20051;-72
2023/05/22 09:04:13;;;;;;;5.35;2.58;;;;;;;21.08;37.38;94472.84;5049576;28;20104;-72
2023/05/22 09:06:38;;;;;;;6.50;2.63;;;;;;;21.27;35.03;94452.78;5049536;28;20118;-72
2023/05/22 09:09:04;;;;;;;5.65;2.10;;;;;;;21.28;34.31;94464.94;5032706;28;20384;-72
2023/05/22 09:11:30;;;;;;;8.45;2.28;;;;;;;21.38;34.10;94483.91;5051023;28;20028;-72
2023/05/22 09:14:15;;;;;;;6.32;2.70;;;;;;;21.58;35.48;94547.34;5032941;28;20435;-72
2023/05/22 09:16:47;;;;;;;3.70;2.28;;;;;;;21.01;35.30;94484.44;5032437;28;20049;-72
2023/05/22 09:19:16;;;;;;;3.85;2.40;;;;;;;20.91;34.66;94471.59;5033045;28;20122;-72
2023/05/22 09:21:43;;;;;;;4.80;2.40;;;;;;;20.45;36.46;94531.06;5049461;28;20090;-71
2023/05/22 09:24:09;;;;;;;4.05;2.60;;;;;;;19.88;37.01;94512.81;5050604;28;20075;-72
2023/05/22 09:26:34;;;;;;;4.93;2.58;;;;;;;20.04;38.27;94470.38;5049375;28;20037;-72
2023/05/22 09:29:00;;;;;;;3.25;2.28;;;;;;;20.25;36.30;94487.91;5049251;28;20028;-72
2023/05/22 09:31:27;;;;;;;4.38;2.45;;;;;;;20.47;36.40;94483.38;5032792;28;20033;-72
2023/05/22 09:33:53;;;;;;;6.18;2.50;;;;;;;20.43;36.90;94477.66;5032485;28;20021;-71
2023/05/22 09:36:18;;;;;;;4.18;2.60;;;;;;;20.57;35.89;94478.56;5049357;28;20052;-72
2023/05/22 09:38:44;;;;;;;4.50;2.53;;;;;;;19.98;37.55;94487.75;5049223;28;20033;-72
2023/05/22 09:41:09;;;;;;;4.20;2.78;;;;;;;20.16;37.47;94471.44;5016347;28;20029;-72
2023/05/22 09:43:35;;;;;;;4.15;2.40;;;;;;;19.99;36.13;94486.75;5050492;28;20067;-72
2023/05/22 09:46:00;;;;;;;5.03;2.28;;;;;;;20.09;36.97;94489.06;5049338;28;20025;-72
2023/05/22 09:48:26;;;;;;;7.80;2.47;;;;;;;20.06;37.40;94463.09;5016169;28;20044;-72
2023/05/22 09:50:55;;;;;;;4.70;2.40;;;;;;;19.89;37.88;94474.91;5016287;28;20029;-72
2023/05/22 09:53:24;;;;;;;5.45;2.45;;;;;;;19.76;37.00;94488.81;5049166;28;20498;-72
2023/05/22 09:55:50;;;;;;;9.70;2.63;;;;;;;19.80;37.06;94500.59;5052277;28;20028;-72
2023/05/22 09:58:17;;;;;;;4.35;2.60;;;;;;;19.67;37.70;94479.41;5052980;28;20295;-72
2023/05/22 10:00:43;;;;;;;3.15;2.15;;;;;;;19.57;39.15;94464.72;5036761;28;20025;-72
2023/05/22 10:03:11;;;;;;;3.58;2.50;;;;;;;19.83;38.37;94463.31;5019955;28;20036;-72
2023/05/22 10:05:37;;;;;;;3.75;2.60;;;;;;;19.98;38.54;94495.66;5054493;28;20025;-71
2023/05/22 10:08:17;;;;;;;8.88;2.45;;;;;;;20.39;38.67;94531.81;5036393;28;20033;-72
2023/05/22 10:10:44;;;;;;;4.82;2.53;;;;;;;20.48;37.80;94520.13;5019796;28;20053;-72
2023/05/22 10:13:10;;;;;;;5.53;2.40;;;;;;;20.82;36.88;94525.56;5036419;28;20031;-71
2023/05/22 10:15:35;;;;;;;4.90;2.35;;;;;;;20.51;36.93;94481.97;5053031;28;20029;-71
2023/05/22 10:18:01;;;;;;;6.10;3.45;;;;;;;20.24;37.18;94462.56;5053923;28;20414;-70
2023/05/22 10:20:28;;;;;;;6.10;2.72;;;;;;;20.26;36.81;94495.66;5052855;28;20032;-71
2023/05/22 10:22:53;;;;;;;5.35;3.03;;;;;;;20.29;37.42;94474.16;5053871;28;20037;-71
2023/05/22 10:25:20;;;;;;;4.65;2.55;;;;;;;20.23;36.79;94443.28;5052560;28;20032;-71
2023/05/22 10:27:46;;;;;;;5.43;2.60;;;;;;;20.44;37.38;94471.38;5052379;28;20029;-71
2023/05/22 10:30:52;;;;;;;3.95;2.67;;;;;;;20.55;37.44;94532.56;5035937;28;20040;-71
2023/05/22 10:33:22;;;;;;;7.40;2.80;;;;;;;20.25;41.69;94530.09;5035839;28;20032;-71
2023/05/22 10:35:54;;;;;;;5.35;3.17;;;;;;;19.67;43.37;94480.25;5036181;28;20580;-70
2023/05/22 10:38:22;;;;;;;6.38;3.28;;;;;;;20.04;42.89;94544.97;5036026;28;20047;-71
2023/05/22 10:40:48;;;;;;;5.68;3.05;;;;;;;19.71;43.43;94489.38;5053409;28;20057;-71
2023/05/22 10:43:13;;;;;;;5.65;3.20;;;;;;;19.94;43.80;94494.41;5052283;28;20482;-71
2023/05/22 10:45:40;;;;;;;7.07;3.47;;;;;;;20.34;43.62;94549.22;5019275;28;20036;-71
2023/05/22 10:48:07;;;;;;;7.55;2.95;;;;;;;19.88;43.23;94489.91;5052009;28;20029;-71
2023/05/22 10:50:33;;;;;;;6.15;3.10;;;;;;;19.83;43.57;94484.41;5052310;28;20163;-71
2023/05/22 10:53:27;;;;;;;8.57;3.40;;;;;;;20.31;43.16;94539.91;5052064;28;20029;-71
2023/05/22 10:55:54;;;;;;;6.32;3.08;;;;;;;20.29;42.43;94520.81;5053617;28;20037;-71
2023/05/22 10:58:29;;;;;;;6.68;2.88;;;;;;;20.12;41.13;94456.22;5018837;28;20491;-71
2023/05/22 11:01:11;;;;;;;5.25;3.05;;;;;;;20.31;43.72;94471.34;5035591;28;20029;-71
2023/05/22 11:03:59;;;;;;;4.78;2.90;;;;;;;20.52;42.10;94526.63;5051999;28;20041;-71
2023/05/22 11:06:48;;;;;;;5.40;3.30;;;;;;;20.53;42.64;94528.28;5050880;28;20044;-71
2023/05/22 11:09:27;;;;;;;5.78;3.40;;;;;;;20.48;43.93;94530.66;5051738;28;20439;-71
2023/05/22 11:12:21;;;;;;;10.80;3.53;;;;;;;20.13;44.05;94536.94;5052843;28;20035;-71
2023/05/22 11:14:50;;;;;;;5.57;3.28;;;;;;;19.46;45.33;94496.03;5051581;28;20060;-71
2023/05/22 11:17:19;;;;;;;8.68;3.28;;;;;;;18.87;45.51;94490.00;5018419;28;20029;-70
2023/05/22 11:19:55;;;;;;;10.27;2.88;;;;;;;18.64;46.79;94499.81;5018922;28;20187;-71
2023/05/22 11:22:20;;;;;;;9.35;2.45;;;;;;;18.27;43.91;94523.41;5019441;28;20025;-70
2023/05/22 11:24:46;;;;;;;4.80;2.15;;;;;;;17.68;43.90;94489.16;5034926;28;20110;-71
2023/05/22 11:27:11;;;;;;;6.90;3.30;;;;;;;17.59;44.79;94509.41;5018272;28;20120;-71
2023/05/22 11:29:38;;;;;;;3.65;1.70;;;;;;;17.31;45.60;94522.28;5034903;28;20458;-71
2023/05/22 11:32:03;;;;;;;4.03;2.60;;;;;;;16.85;47.94;94513.56;5018462;28;20025;-71